createdAt,value
2022-12-08T00:00:25.276Z,80.60
2022-12-08T00:02:28.227Z,80.40
2022-12-08T00:04:51.279Z,80.30
2022-12-08T00:07:12.197Z,80.10
2022-12-08T00:09:22.666Z,80.10
2022-12-08T00:11:25.455Z,79.80
2022-12-08T00:13:28.234Z,79.90
2022-12-08T00:15:31.014Z,80.50
2022-12-08T00:17:33.808Z,79.80
2022-12-08T00:19:37.273Z,80.10
2022-12-08T00:21:40.169Z,79.60
2022-12-08T00:23:44.539Z,79.70
2022-12-08T00:25:47.330Z,80.10
2022-12-08T00:27:50.110Z,80.10
2022-12-08T00:29:52.988Z,80.00
2022-12-08T00:31:55.847Z,79.90
2022-12-08T00:33:59.453Z,79.80
2022-12-08T00:36:07.134Z,79.60
2022-12-08T00:38:09.954Z,79.60
2022-12-08T00:40:14.197Z,79.70
2022-12-08T00:42:17.353Z,79.60
2022-12-08T00:44:20.203Z,79.70
2022-12-08T00:46:23.000Z,79.30
2022-12-08T00:48:25.847Z,79.60
2022-12-08T00:50:28.638Z,79.30
2022-12-08T00:52:31.451Z,79.20
2022-12-08T00:54:34.295Z,79.70
2022-12-08T00:56:38.786Z,79.60
2022-12-08T00:58:41.578Z,79.80
2022-12-08T01:00:45.010Z,79.80
2022-12-08T01:02:47.910Z,79.60
2022-12-08T01:04:50.844Z,79.60
2022-12-08T01:06:53.699Z,79.60
2022-12-08T01:08:56.488Z,79.60
2022-12-08T01:11:04.376Z,79.20
2022-12-08T01:13:08.551Z,79.50
2022-12-08T01:15:11.622Z,79.20
2022-12-08T01:17:14.478Z,79.40
2022-12-08T01:19:18.159Z,79.70
2022-12-08T01:21:21.120Z,79.60
2022-12-08T01:23:23.953Z,79.50
2022-12-08T01:25:26.793Z,79.80
2022-12-08T01:27:30.918Z,79.80
2022-12-08T01:29:35.534Z,79.80
2022-12-08T01:31:38.701Z,79.70
2022-12-08T01:33:42.217Z,79.60
2022-12-08T01:35:45.037Z,79.70
2022-12-08T01:37:47.864Z,79.80
2022-12-08T01:39:50.660Z,79.90
2022-12-08T01:41:53.526Z,79.60
2022-12-08T01:44:01.631Z,79.70
2022-12-08T01:46:06.459Z,80.30
2022-12-08T01:48:12.433Z,79.60
2022-12-08T01:50:18.768Z,79.50
2022-12-08T01:52:26.010Z,79.30
2022-12-08T01:54:32.688Z,79.80
2022-12-08T01:56:44.374Z,79.40
2022-12-08T01:58:50.719Z,79.50
2022-12-08T02:00:54.042Z,79.60
2022-12-08T02:03:01.799Z,79.00
2022-12-08T02:05:06.895Z,79.70
2022-12-08T02:07:11.002Z,79.90
2022-12-08T02:09:15.372Z,79.50
2022-12-08T02:11:18.368Z,79.60
2022-12-08T02:13:23.370Z,79.90
2022-12-08T02:15:33.942Z,79.90
2022-12-08T02:17:51.071Z,79.40
2022-12-08T02:20:22.579Z,79.80
2022-12-08T02:22:34.989Z,79.90
2022-12-08T02:24:40.760Z,79.70
2022-12-08T02:27:13.133Z,80.10
2022-12-08T02:29:33.042Z,80.00
2022-12-08T02:31:47.888Z,80.20
2022-12-08T02:34:18.547Z,80.10
2022-12-08T02:36:28.065Z,80.30
2022-12-08T02:38:41.583Z,79.60
2022-12-08T02:40:54.738Z,79.90
2022-12-08T02:43:01.579Z,80.10
2022-12-08T02:45:08.251Z,79.90
2022-12-08T02:47:13.855Z,80.00
2022-12-08T02:49:18.053Z,80.50
2022-12-08T02:51:21.211Z,80.40
2022-12-08T02:53:24.135Z,80.30
2022-12-08T02:55:29.000Z,80.40
2022-12-08T02:57:38.118Z,80.40
2022-12-08T03:00:05.933Z,79.80
2022-12-08T03:02:27.718Z,80.00
2022-12-08T03:04:42.802Z,80.50
2022-12-08T03:06:52.654Z,80.50
2022-12-08T03:08:59.006Z,80.40
2022-12-08T03:11:05.775Z,80.10
2022-12-08T03:13:14.054Z,79.90
2022-12-08T03:15:20.294Z,80.50
2022-12-08T03:17:25.987Z,80.60
2022-12-08T03:19:32.761Z,80.50
2022-12-08T03:21:38.406Z,80.10
2022-12-08T03:23:43.338Z,80.00
2022-12-08T03:25:53.503Z,80.10
2022-12-08T03:27:56.405Z,79.70
2022-12-08T03:30:00.982Z,79.70
2022-12-08T03:32:11.745Z,80.10
2022-12-08T03:34:16.026Z,80.00
2022-12-08T03:36:20.010Z,79.90
2022-12-08T03:38:24.403Z,79.70
2022-12-08T03:40:27.230Z,79.40
2022-12-08T03:42:30.039Z,79.50
2022-12-08T03:44:32.909Z,79.90
2022-12-08T03:46:35.799Z,80.00
2022-12-08T03:48:38.633Z,80.00
2022-12-08T03:50:41.460Z,79.10
2022-12-08T03:52:44.333Z,79.70
2022-12-08T03:54:48.557Z,79.50
2022-12-08T03:56:51.575Z,79.30
2022-12-08T03:58:55.268Z,79.60
2022-12-08T04:00:58.151Z,79.50
2022-12-08T04:03:01.089Z,79.20
2022-12-08T04:05:04.111Z,79.40
2022-12-08T04:07:07.008Z,79.20
2022-12-08T04:09:09.891Z,79.30
2022-12-08T04:11:14.130Z,79.00
2022-12-08T04:13:17.027Z,79.30
2022-12-08T04:15:19.850Z,79.40
2022-12-08T04:17:22.683Z,79.30
2022-12-08T04:19:25.663Z,79.30
2022-12-08T04:21:28.549Z,79.30
2022-12-08T04:23:31.458Z,79.40
2022-12-08T04:25:34.732Z,79.40
2022-12-08T04:27:39.027Z,79.30
2022-12-08T04:29:41.845Z,79.30
2022-12-08T04:31:44.752Z,79.20
2022-12-08T04:33:48.623Z,79.20
2022-12-08T04:35:51.561Z,79.30
2022-12-08T04:37:54.486Z,79.30
2022-12-08T04:39:57.337Z,79.30
2022-12-08T04:42:00.158Z,79.30
2022-12-08T04:44:04.456Z,79.20
2022-12-08T04:46:08.919Z,79.10
2022-12-08T04:48:13.226Z,79.40
2022-12-08T04:50:16.073Z,80.10
2022-12-08T04:52:18.881Z,79.40
2022-12-08T04:54:21.733Z,79.50
2022-12-08T04:56:24.562Z,79.40
2022-12-08T04:58:27.447Z,79.40
2022-12-08T05:00:31.609Z,79.40
2022-12-08T05:02:34.703Z,79.40
2022-12-08T05:04:37.624Z,79.40
2022-12-08T05:06:40.460Z,79.40
2022-12-08T05:08:44.242Z,79.30
2022-12-08T05:10:47.059Z,79.30
2022-12-08T05:12:49.909Z,79.40
2022-12-08T05:14:54.976Z,79.50
2022-12-08T05:16:59.183Z,79.40
2022-12-08T05:19:01.993Z,78.90
2022-12-08T05:21:05.810Z,79.20
2022-12-08T05:23:08.656Z,79.40
2022-12-08T05:25:11.509Z,79.40
2022-12-08T05:27:14.334Z,79.50
2022-12-08T05:29:17.180Z,79.30
2022-12-08T05:31:20.325Z,79.50
2022-12-08T05:33:24.544Z,79.40
2022-12-08T05:35:27.417Z,79.40
2022-12-08T05:37:30.286Z,79.50
2022-12-08T05:39:33.096Z,79.30
2022-12-08T05:41:35.917Z,79.40
2022-12-08T05:43:38.754Z,79.30
2022-12-08T05:45:41.752Z,79.20
2022-12-08T05:47:44.768Z,79.20
2022-12-08T05:49:49.696Z,79.30
2022-12-08T05:51:52.575Z,79.30
2022-12-08T05:53:55.948Z,78.90
2022-12-08T05:55:58.765Z,78.90
2022-12-08T05:58:06.230Z,78.90
2022-12-08T06:00:11.485Z,79.00
2022-12-08T06:02:14.560Z,79.20
2022-12-08T06:04:17.438Z,79.10
2022-12-08T06:06:21.651Z,79.20
2022-12-08T06:08:24.660Z,79.10
2022-12-08T06:10:27.596Z,78.80
2022-12-08T06:12:30.611Z,79.20
2022-12-08T06:14:33.458Z,79.10
2022-12-08T06:16:36.319Z,79.00
2022-12-08T06:18:39.252Z,78.60
2022-12-08T06:20:42.054Z,78.90
2022-12-08T06:22:46.251Z,79.00
2022-12-08T06:24:49.402Z,78.90
2022-12-08T06:26:52.253Z,78.90
2022-12-08T06:28:55.104Z,79.10
2022-12-08T06:30:58.066Z,79.20
2022-12-08T06:33:01.083Z,79.20
2022-12-08T06:35:03.993Z,79.10
2022-12-08T06:37:06.849Z,79.10
2022-12-08T06:39:11.586Z,79.20
2022-12-08T06:41:14.943Z,79.20
2022-12-08T06:43:17.908Z,79.10
2022-12-08T06:45:21.165Z,79.10
2022-12-08T06:47:26.298Z,79.00
2022-12-08T06:49:29.412Z,78.90
2022-12-08T06:51:32.259Z,79.10
2022-12-08T06:53:35.090Z,79.10
2022-12-08T06:58:02.068Z,79.10
2022-12-08T07:00:06.613Z,79.00
2022-12-08T07:02:10.639Z,79.00
2022-12-08T07:04:13.550Z,79.00
2022-12-08T07:06:25.699Z,78.90
2022-12-08T07:08:28.663Z,79.10
2022-12-08T07:10:31.668Z,78.90
2022-12-08T07:12:35.902Z,78.90
2022-12-08T07:14:38.767Z,79.00
2022-12-08T07:16:41.731Z,78.60
2022-12-08T07:18:44.918Z,78.70
2022-12-08T07:20:47.796Z,78.70
2022-12-08T07:22:51.193Z,78.90
2022-12-08T07:24:54.007Z,78.90
2022-12-08T07:26:56.924Z,78.90
2022-12-08T07:29:01.246Z,78.80
2022-12-08T07:31:04.568Z,78.80
2022-12-08T07:33:07.416Z,78.70
2022-12-08T07:35:10.581Z,78.90
2022-12-08T07:37:13.402Z,78.80
2022-12-08T07:39:16.263Z,78.80
2022-12-08T07:41:23.220Z,79.00
2022-12-08T07:43:26.569Z,78.80
2022-12-08T07:45:31.809Z,78.70
2022-12-08T07:47:34.877Z,78.80
2022-12-08T07:49:37.712Z,78.90
2022-12-08T07:51:40.531Z,78.90
2022-12-08T07:53:47.283Z,79.00
2022-12-08T07:55:54.635Z,79.10
2022-12-08T07:57:57.465Z,78.80
2022-12-08T08:00:00.351Z,78.90
2022-12-08T08:02:23.514Z,78.80
2022-12-08T08:04:27.594Z,78.90
2022-12-08T08:06:30.724Z,78.90
2022-12-08T08:08:33.694Z,78.90
2022-12-08T08:10:36.628Z,78.80
2022-12-08T08:12:40.038Z,78.80
2022-12-08T08:14:42.829Z,79.00
2022-12-08T08:16:47.498Z,78.90
2022-12-08T08:18:52.417Z,79.00
2022-12-08T08:20:55.242Z,79.10
2022-12-08T08:22:58.089Z,79.40
2022-12-08T08:25:01.095Z,79.00
2022-12-08T08:27:04.036Z,79.30
2022-12-08T08:29:07.018Z,79.30
2022-12-08T08:31:09.917Z,79.30
2022-12-08T08:33:12.894Z,79.40
2022-12-08T08:35:17.306Z,79.50
2022-12-08T08:37:20.216Z,79.60
2022-12-08T08:39:23.085Z,79.50
2022-12-08T08:41:26.024Z,79.60
2022-12-08T08:43:37.926Z,79.60
2022-12-08T08:45:41.283Z,79.50
2022-12-08T08:47:44.123Z,79.20
2022-12-08T08:49:47.322Z,79.50
2022-12-08T08:51:52.595Z,79.50
2022-12-08T08:53:55.412Z,79.40
2022-12-08T08:55:58.245Z,79.30
2022-12-08T08:58:01.095Z,79.20
2022-12-08T09:00:05.555Z,79.30
2022-12-08T09:02:11.137Z,79.40
2022-12-08T09:04:14.105Z,79.60
2022-12-08T09:06:17.349Z,79.40
2022-12-08T09:08:21.612Z,79.20
2022-12-08T09:10:24.608Z,79.20
2022-12-08T09:12:27.526Z,79.60
2022-12-08T09:14:30.362Z,79.50
2022-12-08T09:16:38.937Z,79.50
2022-12-08T09:18:44.833Z,79.60
2022-12-08T09:20:47.707Z,79.20
2022-12-08T09:22:50.582Z,79.10
2022-12-08T09:24:54.753Z,78.50
2022-12-08T09:26:57.607Z,78.80
2022-12-08T09:29:01.412Z,79.40
2022-12-08T09:31:04.929Z,79.10
2022-12-08T09:33:08.016Z,78.90
2022-12-08T09:35:10.850Z,78.70
2022-12-08T09:37:13.662Z,78.80
2022-12-08T09:39:16.540Z,78.90
2022-12-08T09:41:35.942Z,79.40
2022-12-08T09:43:53.788Z,78.80
2022-12-08T09:45:57.171Z,78.90
2022-12-08T09:48:06.190Z,79.20
2022-12-08T09:50:16.721Z,78.90
2022-12-08T09:52:24.578Z,79.10
2022-12-08T09:54:34.450Z,79.10
2022-12-08T09:56:39.165Z,79.20
2022-12-08T09:58:51.869Z,79.00
2022-12-08T10:00:54.734Z,78.90
2022-12-08T10:02:57.963Z,79.30
2022-12-08T10:05:00.904Z,79.30
2022-12-08T10:07:11.004Z,79.20
2022-12-08T10:09:24.950Z,78.50
2022-12-08T10:11:33.180Z,79.20
2022-12-08T10:13:43.555Z,79.60
2022-12-08T10:15:51.911Z,80.70
2022-12-08T10:17:55.868Z,79.50
2022-12-08T10:20:03.474Z,79.40
2022-12-08T10:22:16.347Z,78.90
2022-12-08T10:24:27.085Z,79.60
2022-12-08T10:26:32.634Z,79.30
2022-12-08T10:28:43.001Z,78.90
2022-12-08T10:30:47.840Z,79.60
2022-12-08T10:32:52.547Z,78.90
2022-12-08T10:35:08.036Z,79.50
2022-12-08T10:37:11.401Z,79.20
2022-12-08T10:39:31.245Z,80.20
2022-12-08T10:41:34.088Z,79.10
2022-12-08T10:43:43.604Z,80.00
2022-12-08T10:45:46.456Z,79.50
2022-12-08T10:47:58.921Z,79.80
2022-12-08T10:50:15.088Z,79.30
2022-12-08T10:52:24.164Z,79.40
2022-12-08T10:54:33.310Z,79.60
2022-12-08T10:56:36.130Z,79.50
2022-12-08T10:58:42.041Z,79.20
2022-12-08T11:00:45.186Z,78.90
2022-12-08T11:03:00.636Z,79.00
2022-12-08T11:05:03.586Z,79.50
2022-12-08T11:07:10.924Z,78.90
2022-12-08T11:09:35.939Z,79.30
2022-12-08T11:11:45.332Z,79.70
2022-12-08T11:13:52.265Z,79.00
2022-12-08T11:15:56.406Z,79.60
2022-12-08T11:18:03.081Z,80.00
2022-12-08T11:20:21.494Z,79.30
2022-12-08T11:22:27.170Z,79.30
2022-12-08T11:24:36.056Z,78.30
2022-12-08T11:26:40.675Z,79.90
2022-12-08T11:28:43.596Z,80.00
2022-12-08T11:30:52.015Z,79.90
2022-12-08T11:32:58.535Z,78.20
2022-12-08T11:35:04.757Z,78.90
2022-12-08T11:37:13.836Z,79.40
2022-12-08T11:39:16.902Z,79.50
2022-12-08T11:41:23.508Z,79.60
2022-12-08T11:43:36.236Z,79.00
2022-12-08T11:45:42.116Z,78.50
2022-12-08T11:47:55.974Z,79.50
2022-12-08T11:50:18.033Z,79.20
2022-12-08T11:52:28.832Z,79.20
2022-12-08T11:54:34.984Z,80.20
2022-12-08T11:56:40.193Z,80.10
2022-12-08T11:58:46.762Z,79.60
2022-12-08T12:00:50.541Z,79.40
2022-12-08T12:03:03.404Z,79.70
2022-12-08T12:05:11.976Z,80.10
2022-12-08T12:07:45.675Z,79.50
2022-12-08T12:10:11.979Z,79.80
2022-12-08T12:12:28.442Z,79.40
2022-12-08T12:14:47.666Z,79.30
2022-12-08T12:17:02.714Z,79.40
2022-12-08T12:19:13.320Z,79.30
2022-12-08T12:21:20.239Z,79.50
2022-12-08T12:23:29.767Z,79.50
2022-12-08T12:25:35.221Z,79.20
2022-12-08T12:27:40.647Z,79.10
2022-12-08T12:29:50.940Z,80.00
2022-12-08T12:32:04.414Z,80.00
2022-12-08T12:34:12.719Z,79.70
2022-12-08T12:36:16.746Z,79.50
2022-12-08T12:38:42.496Z,79.10
2022-12-08T12:40:45.407Z,79.40
2022-12-08T12:43:09.693Z,79.60
2022-12-08T12:45:27.969Z,79.60
2022-12-08T12:47:54.283Z,77.90
2022-12-08T12:50:09.311Z,79.00
2022-12-08T12:52:44.387Z,79.20
2022-12-08T12:55:20.667Z,78.70
2022-12-08T12:57:25.718Z,80.00
2022-12-08T12:59:51.609Z,81.30
2022-12-08T13:01:58.301Z,81.10
2022-12-08T13:04:07.229Z,81.70
2022-12-08T13:06:14.751Z,80.90
2022-12-08T13:08:22.643Z,80.60
2022-12-08T13:10:30.192Z,80.90
2022-12-08T13:12:33.064Z,81.00
2022-12-08T13:14:37.748Z,80.80
2022-12-08T13:16:41.065Z,81.40
2022-12-08T13:18:48.031Z,81.90
2022-12-08T13:20:54.027Z,81.70
2022-12-08T13:23:14.681Z,81.20
2022-12-08T13:25:49.701Z,80.90
2022-12-08T13:27:56.203Z,81.20
2022-12-08T13:30:32.468Z,80.20
2022-12-08T13:35:21.060Z,82.40
2022-12-08T13:37:29.294Z,83.30
2022-12-08T13:39:52.116Z,83.70
2022-12-08T13:42:04.669Z,84.00
2022-12-08T13:45:11.335Z,84.40
2022-12-08T13:55:01.354Z,84.70
2022-12-08T13:58:50.943Z,84.40
2022-12-08T14:01:01.394Z,84.70
2022-12-08T14:03:04.358Z,84.60
2022-12-08T14:05:18.047Z,84.90
2022-12-08T14:07:23.431Z,84.70
2022-12-08T14:09:29.709Z,84.50
2022-12-08T14:11:37.674Z,84.80
2022-12-08T14:13:41.173Z,85.60
2022-12-08T14:15:44.095Z,85.50
2022-12-08T14:17:52.903Z,85.40
2022-12-08T14:19:57.469Z,85.00
2022-12-08T14:22:02.128Z,84.50
2022-12-08T14:24:05.311Z,85.10
2022-12-08T14:26:08.355Z,85.10
2022-12-08T14:28:13.677Z,84.80
2022-12-08T14:30:22.919Z,83.50
2022-12-08T14:32:30.149Z,83.90
2022-12-08T14:34:40.376Z,83.90
2022-12-08T14:36:43.381Z,84.00
2022-12-08T14:38:46.485Z,84.10
2022-12-08T14:40:50.765Z,83.60
2022-12-08T14:43:06.025Z,83.50
2022-12-08T14:45:14.047Z,82.50
2022-12-08T14:47:21.605Z,82.60
2022-12-08T14:49:33.944Z,83.20
2022-12-08T14:51:36.905Z,83.20
2022-12-08T14:53:42.318Z,82.70
2022-12-08T14:55:47.572Z,82.70
2022-12-08T14:57:50.619Z,82.50
2022-12-08T14:59:53.645Z,82.80
2022-12-08T15:02:21.652Z,82.10
2022-12-08T15:04:26.883Z,82.70
2022-12-08T15:06:29.894Z,82.80
2022-12-08T15:08:33.290Z,82.50
2022-12-08T15:10:39.721Z,82.50
2022-12-08T15:13:01.674Z,82.10
2022-12-08T15:15:17.141Z,82.20
2022-12-08T15:17:36.290Z,82.10
2022-12-08T15:19:40.977Z,81.60
2022-12-08T15:21:44.498Z,81.20
2022-12-08T15:23:51.996Z,80.80
2022-12-08T15:25:56.015Z,81.10
2022-12-08T15:27:58.905Z,81.50
2022-12-08T15:30:01.819Z,81.10
2022-12-08T15:32:10.643Z,81.90
2022-12-08T15:34:14.864Z,82.00
2022-12-08T15:36:18.164Z,81.70
2022-12-08T15:38:25.725Z,82.50
2022-12-08T15:40:28.549Z,82.80
2022-12-08T15:42:31.400Z,82.60
2022-12-08T15:44:34.271Z,82.40
2022-12-08T15:46:37.174Z,82.00
2022-12-08T15:48:40.053Z,82.00
2022-12-08T15:50:44.515Z,81.40
2022-12-08T15:52:47.490Z,81.40
2022-12-08T15:54:50.551Z,81.20
2022-12-08T15:57:18.566Z,81.50
2022-12-08T15:59:22.975Z,81.80
2022-12-08T16:01:26.629Z,81.60
2022-12-08T16:06:39.068Z,80.90
2022-12-08T16:11:24.151Z,81.30
2022-12-08T16:13:56.308Z,81.20
2022-12-08T16:15:59.811Z,81.20
2022-12-08T16:18:03.561Z,81.30
2022-12-08T16:20:08.194Z,81.60
2022-12-08T16:22:52.441Z,81.40
2022-12-08T16:24:40.403Z,81.40
2022-12-08T16:29:06.784Z,81.10
2022-12-08T16:31:15.078Z,81.00
2022-12-08T16:33:19.667Z,81.10
2022-12-08T16:35:22.478Z,81.10
2022-12-08T16:37:30.632Z,81.10
2022-12-08T16:39:34.187Z,81.00
2022-12-08T16:41:54.352Z,80.70
2022-12-08T16:43:57.972Z,80.80
2022-12-08T16:46:00.948Z,81.00
2022-12-08T16:48:03.883Z,80.90
2022-12-08T16:50:08.779Z,80.70
2022-12-08T16:52:11.964Z,80.50
2022-12-08T16:54:16.283Z,80.90
2022-12-08T16:56:20.944Z,80.90
2022-12-08T16:58:23.827Z,81.00
2022-12-08T17:00:28.675Z,81.40
2022-12-08T17:02:31.505Z,81.60
2022-12-08T17:04:34.496Z,81.60
2022-12-08T17:06:37.378Z,81.40
2022-12-08T17:08:41.640Z,81.40
2022-12-08T17:11:05.802Z,81.10
2022-12-08T17:13:09.321Z,81.00
2022-12-08T17:15:14.189Z,80.90
2022-12-08T17:17:17.074Z,81.20
2022-12-08T17:19:20.027Z,81.30
2022-12-08T17:21:22.913Z,81.20
2022-12-08T17:23:25.728Z,81.20
2022-12-08T17:25:28.730Z,80.80
2022-12-08T17:27:34.255Z,81.20
2022-12-08T17:29:38.162Z,81.20
2022-12-08T17:31:41.073Z,81.20
2022-12-08T17:33:44.196Z,81.30
2022-12-08T17:35:48.755Z,81.00
2022-12-08T17:37:51.614Z,81.60
2022-12-08T17:39:54.532Z,81.40
2022-12-08T17:41:57.472Z,81.40
2022-12-08T17:44:01.909Z,81.50
2022-12-08T17:46:05.567Z,81.60
2022-12-08T17:48:08.622Z,81.40
2022-12-08T17:50:11.631Z,81.00
2022-12-08T17:52:14.454Z,80.80
2022-12-08T17:54:18.411Z,81.10
2022-12-08T17:56:22.842Z,81.20
2022-12-08T17:58:25.895Z,82.40
2022-12-08T18:00:30.239Z,81.90
2022-12-08T18:02:33.563Z,81.80
2022-12-08T18:04:36.577Z,82.20
2022-12-08T18:06:40.734Z,82.10
2022-12-08T18:08:43.589Z,82.50
2022-12-08T18:10:47.805Z,82.30
2022-12-08T18:12:50.669Z,81.90
2022-12-08T18:14:53.560Z,81.80
2022-12-08T18:16:57.809Z,82.00
2022-12-08T18:19:00.671Z,81.50
2022-12-08T18:21:03.548Z,81.70
2022-12-08T18:23:06.383Z,81.70
2022-12-08T18:25:10.483Z,81.90
2022-12-08T18:27:13.332Z,82.80
2022-12-08T18:29:16.164Z,83.10
2022-12-08T18:31:21.314Z,83.20
2022-12-08T18:33:25.555Z,82.50
2022-12-08T18:35:28.783Z,82.70
2022-12-08T18:37:31.707Z,82.70
2022-12-08T18:39:34.701Z,82.40
2022-12-08T18:41:37.531Z,82.50
2022-12-08T18:43:41.064Z,82.60
2022-12-08T18:45:43.966Z,82.60
2022-12-08T18:47:46.860Z,82.80
2022-12-08T18:49:51.077Z,82.70
2022-12-08T18:51:53.941Z,82.60
2022-12-08T18:53:56.903Z,82.60
2022-12-08T18:55:59.703Z,82.60
2022-12-08T18:58:02.528Z,82.40
2022-12-08T19:00:06.738Z,82.50
2022-12-08T19:02:11.754Z,82.30
2022-12-08T19:04:31.235Z,82.10
2022-12-08T19:06:38.324Z,82.30
2022-12-08T19:08:41.546Z,82.00
2022-12-08T19:10:44.404Z,82.10
2022-12-08T19:12:50.727Z,82.30
2022-12-08T19:14:53.832Z,82.40
2022-12-08T19:16:57.110Z,82.20
2022-12-08T19:19:00.056Z,82.10
2022-12-08T19:21:02.895Z,82.80
2022-12-08T19:23:07.110Z,82.20
2022-12-08T19:25:10.330Z,82.30
2022-12-08T19:27:13.190Z,82.20
2022-12-08T19:29:16.223Z,81.90
2022-12-08T19:31:19.139Z,81.50
2022-12-08T19:33:22.032Z,81.80
2022-12-08T19:35:24.973Z,81.60
2022-12-08T19:37:27.836Z,81.60
2022-12-08T19:39:49.656Z,81.70
2022-12-08T19:42:10.071Z,81.70
2022-12-08T19:44:36.650Z,81.40
2022-12-08T19:46:40.649Z,81.60
2022-12-08T19:48:43.714Z,81.60
2022-12-08T19:50:46.575Z,81.40
2022-12-08T19:52:49.583Z,81.40
2022-12-08T19:54:53.795Z,81.30
2022-12-08T19:56:56.633Z,81.10
2022-12-08T19:58:59.472Z,81.20
2022-12-08T20:01:02.524Z,81.00
2022-12-08T20:03:06.372Z,81.00
2022-12-08T20:05:10.383Z,81.30
2022-12-08T20:07:13.873Z,81.20
2022-12-08T20:09:16.790Z,81.20
2022-12-08T20:11:20.990Z,80.90
2022-12-08T20:13:43.775Z,80.90
2022-12-08T20:15:46.955Z,80.80
2022-12-08T20:17:49.838Z,80.70
2022-12-08T20:19:52.995Z,80.60
2022-12-08T20:21:57.565Z,81.00
2022-12-08T20:24:00.431Z,81.20
2022-12-08T20:26:06.117Z,81.10
2022-12-08T20:28:10.653Z,81.10
2022-12-08T20:30:17.289Z,81.00
2022-12-08T20:32:20.315Z,80.90
2022-12-08T20:34:23.153Z,81.00
2022-12-08T20:36:26.175Z,81.10
2022-12-08T20:38:29.800Z,81.00
2022-12-08T20:40:32.686Z,81.00
2022-12-08T20:42:35.570Z,81.60
2022-12-08T20:44:43.281Z,80.80
2022-12-08T20:46:49.539Z,80.70
2022-12-08T20:48:52.767Z,80.80
2022-12-08T20:50:55.885Z,81.40
2022-12-08T20:52:58.851Z,80.70
2022-12-08T20:55:02.031Z,80.70
2022-12-08T20:57:05.474Z,80.60
2022-12-08T20:59:08.415Z,80.70
2022-12-08T21:01:14.400Z,81.00
2022-12-08T21:03:18.624Z,81.20
2022-12-08T21:05:22.280Z,81.00
2022-12-08T21:07:25.330Z,80.80
2022-12-08T21:09:28.390Z,80.80
2022-12-08T21:11:31.524Z,80.70
2022-12-08T21:13:34.668Z,80.80
2022-12-08T21:15:37.860Z,80.80
2022-12-08T21:17:42.190Z,80.70
2022-12-08T21:19:45.154Z,80.70
2022-12-08T21:21:48.253Z,80.60
2022-12-08T21:23:51.302Z,80.60
2022-12-08T21:25:54.299Z,80.60
2022-12-08T21:27:57.182Z,80.70
2022-12-08T21:30:00.036Z,80.60
2022-12-08T21:32:02.990Z,80.60
2022-12-08T21:34:07.606Z,80.80
2022-12-08T21:36:15.292Z,80.70
2022-12-08T21:38:18.175Z,80.50
2022-12-08T21:40:21.100Z,80.60
2022-12-08T21:42:41.553Z,80.60
2022-12-08T21:44:44.489Z,80.50
2022-12-08T21:46:47.808Z,80.70
2022-12-08T21:48:50.874Z,80.80
2022-12-08T21:50:55.577Z,80.80
2022-12-08T21:52:58.449Z,80.80
2022-12-08T21:55:01.331Z,80.70
2022-12-08T21:57:04.568Z,80.70
2022-12-08T21:59:07.482Z,80.70
2022-12-08T22:01:12.399Z,80.60
2022-12-08T22:03:16.263Z,80.70
2022-12-08T22:05:19.622Z,80.60
2022-12-08T22:07:24.080Z,80.60
2022-12-08T22:09:27.588Z,80.80
2022-12-08T22:11:30.907Z,80.60
2022-12-08T22:13:36.627Z,80.50
2022-12-08T22:15:39.636Z,80.70
2022-12-08T22:17:44.520Z,80.60
2022-12-08T22:19:47.575Z,80.70
2022-12-08T22:21:50.658Z,80.70
2022-12-08T22:23:55.014Z,80.70
2022-12-08T22:25:58.942Z,80.60
2022-12-08T22:28:02.288Z,80.50
2022-12-08T22:30:06.483Z,80.20
2022-12-08T22:32:09.797Z,81.10
2022-12-08T22:34:14.511Z,80.50
2022-12-08T22:36:19.833Z,80.50
2022-12-08T22:38:22.913Z,80.50
2022-12-08T22:40:27.402Z,80.70
2022-12-08T22:42:30.400Z,80.70
2022-12-08T22:44:33.463Z,80.70
2022-12-08T22:46:36.475Z,80.40
2022-12-08T22:48:39.497Z,80.60
2022-12-08T22:50:42.864Z,80.70
2022-12-08T22:52:45.875Z,81.50
2022-12-08T22:54:48.891Z,80.90
2022-12-08T22:56:53.067Z,80.80
2022-12-08T22:58:56.115Z,80.60
2022-12-08T23:00:58.971Z,80.90
2022-12-08T23:03:01.873Z,80.80
2022-12-08T23:05:05.817Z,80.70
2022-12-08T23:07:08.894Z,81.00
2022-12-08T23:09:12.039Z,80.90
2022-12-08T23:11:15.467Z,80.90
2022-12-08T23:13:20.379Z,80.80
2022-12-08T23:15:23.460Z,80.70
2022-12-08T23:17:26.736Z,80.50
2022-12-08T23:19:30.012Z,80.70
2022-12-08T23:21:32.995Z,80.80
2022-12-08T23:23:36.137Z,80.70
2022-12-08T23:25:41.387Z,80.70
2022-12-08T23:27:44.258Z,81.00
2022-12-08T23:29:48.440Z,80.80
2022-12-08T23:31:51.277Z,80.70
2022-12-08T23:33:55.149Z,80.60
2022-12-08T23:35:58.657Z,80.80
2022-12-08T23:38:01.636Z,80.60
2022-12-08T23:40:05.881Z,80.50
2022-12-08T23:42:09.511Z,80.50
2022-12-08T23:44:12.936Z,80.50
2022-12-08T23:46:19.186Z,80.60
2022-12-08T23:48:22.461Z,80.80
2022-12-08T23:50:25.271Z,80.70
2022-12-08T23:52:28.054Z,80.80
2022-12-08T23:54:30.898Z,80.60
2022-12-08T23:56:33.822Z,80.50
2022-12-08T23:58:37.240Z,80.60
